Time;durP1;ratioP1;P1;durP2;ratioP2;P2;SDS_P1;SDS_P2;PMS_P1;PMS_P2;Temp;Humidity;BMP_temperature;BMP_pressure;BME280_temperature;BME280_humidity;BME280_pressure;Samples;Min_cycle;Max_cycle;Signal;HPM_P1;HPM_P2
2021/05/07 00:01:21;;;;;;;0.73;0.73;;;;;;;7.76;90.59;95860.06;5031782;28;20626;-66
2021/05/07 00:03:47;;;;;;;0.53;0.53;;;;;;;7.72;90.31;95864.97;5030886;28;20195;-66
2021/05/07 00:06:12;;;;;;;0.70;0.70;;;;;;;7.68;90.76;95861.25;5014038;28;20181;-66
2021/05/07 00:08:40;;;;;;;0.63;0.63;;;;;;;7.64;90.45;95862.72;5030513;28;20256;-67
2021/05/07 00:11:08;;;;;;;0.70;0.70;;;;;;;7.62;91.37;95861.38;5031650;28;20174;-67
2021/05/07 00:13:34;;;;;;;0.80;0.80;;;;;;;7.69;91.37;95860.19;5023083;28;20245;-67
2021/05/07 00:15:59;;;;;;;0.80;0.80;;;;;;;7.68;90.98;95865.66;5031621;28;20539;-67
2021/05/07 00:18:25;;;;;;;0.60;0.60;;;;;;;7.77;90.25;95870.28;5030275;28;20194;-67
2021/05/07 00:20:51;;;;;;;0.97;0.80;;;;;;;7.80;90.47;95871.66;5031124;28;20194;-67
2021/05/07 00:23:17;;;;;;;0.70;0.70;;;;;;;7.78;90.46;95876.28;5031688;28;20182;-67
2021/05/07 00:25:44;;;;;;;0.90;0.80;;;;;;;7.81;90.75;95886.25;5030918;28;20686;-67
2021/05/07 00:28:10;;;;;;;0.70;0.70;;;;;;;7.81;90.28;95881.84;5031463;28;20218;-67
2021/05/07 00:30:37;;;;;;;1.70;0.70;;;;;;;7.67;91.18;95877.13;5030944;28;20174;-67
2021/05/07 00:33:06;;;;;;;0.70;0.70;;;;;;;7.75;90.42;95876.75;5026701;28;20204;-67
2021/05/07 00:35:32;;;;;;;0.80;0.80;;;;;;;7.63;91.04;95876.00;5030044;28;20183;-66
2021/05/07 00:37:57;;;;;;;0.80;0.80;;;;;;;7.78;90.62;95871.88;5031801;28;20627;-66
2021/05/07 00:40:23;;;;;;;0.97;0.97;;;;;;;7.75;91.31;95874.13;5031326;28;20197;-67
2021/05/07 00:42:48;;;;;;;0.80;0.80;;;;;;;7.76;91.79;95878.34;5030607;28;20170;-67
2021/05/07 00:45:15;;;;;;;0.90;0.90;;;;;;;7.75;91.24;95874.94;5030886;28;20183;-67
2021/05/07 00:47:48;;;;;;;0.77;0.77;;;;;;;7.79;90.50;95876.06;5022262;28;20224;-66
2021/05/07 00:50:15;;;;;;;1.33;0.80;;;;;;;7.79;91.14;95890.94;5031241;28;20639;-67
2021/05/07 00:52:41;;;;;;;0.87;0.77;;;;;;;7.73;91.84;95887.44;5030653;28;20187;-66
2021/05/07 00:55:08;;;;;;;0.87;0.87;;;;;;;7.68;92.44;95881.31;5012798;28;20572;-67
2021/05/07 00:57:34;;;;;;;1.17;1.00;;;;;;;7.64;91.40;95885.38;5030324;28;20197;-67
2021/05/07 01:00:00;;;;;;;0.80;0.80;;;;;;;7.63;92.06;95887.22;5030425;28;20218;-67
2021/05/07 01:02:25;;;;;;;1.00;0.97;;;;;;;7.65;92.90;95889.59;5030766;28;20190;-67
2021/05/07 01:04:51;;;;;;;0.67;0.67;;;;;;;7.62;92.19;95892.66;5030136;28;20253;-67
2021/05/07 01:07:17;;;;;;;0.70;0.70;;;;;;;7.53;92.04;95889.59;5030903;28;20686;-67
2021/05/07 01:09:42;;;;;;;0.70;0.70;;;;;;;7.39;92.31;95888.28;5029930;28;20190;-66
2021/05/07 01:12:09;;;;;;;0.90;0.90;;;;;;;7.48;92.83;95885.06;5031153;28;20178;-67
2021/05/07 01:14:35;;;;;;;0.90;0.90;;;;;;;7.36;91.82;95889.50;5011762;28;20183;-66
2021/05/07 01:17:00;;;;;;;1.27;0.70;;;;;;;7.40;91.82;95889.84;5029855;28;20337;-66
2021/05/07 01:19:27;;;;;;;0.70;0.70;;;;;;;7.45;91.10;95895.19;5030706;28;20265;-66
2021/05/07 01:21:53;;;;;;;0.70;0.70;;;;;;;7.47;90.89;95893.91;5030841;28;20321;-66
2021/05/07 01:24:20;;;;;;;0.83;0.83;;;;;;;7.18;91.60;95892.25;5031024;28;20642;-66
2021/05/07 01:26:45;;;;;;;1.27;0.73;;;;;;;7.24;92.62;95896.56;5029508;28;20191;-66
2021/05/07 01:29:11;;;;;;;0.70;0.70;;;;;;;7.33;91.31;95903.00;5030722;28;20212;-66
2021/05/07 01:31:37;;;;;;;0.70;0.70;;;;;;;7.36;91.55;95902.53;5029961;28;20178;-66
2021/05/07 01:34:04;;;;;;;0.70;0.70;;;;;;;7.31;92.15;95902.44;5023832;28;20531;-67
2021/05/07 01:36:29;;;;;;;0.80;0.73;;;;;;;7.18;94.41;95918.31;5030184;28;20189;-67
2021/05/07 01:38:55;;;;;;;0.77;0.77;;;;;;;7.15;94.92;95907.53;5030452;28;20554;-66
2021/05/07 01:41:20;;;;;;;0.70;0.70;;;;;;;7.09;95.09;95906.63;5030101;28;20185;-67
2021/05/07 01:43:45;;;;;;;0.70;0.70;;;;;;;6.96;96.13;95912.88;5029692;28;20265;-67
2021/05/07 01:46:11;;;;;;;0.80;0.80;;;;;;;6.84;95.71;95898.22;5030713;28;20186;-67
2021/05/07 01:48:36;;;;;;;0.80;0.80;;;;;;;6.77;95.59;95908.75;5033805;28;20234;-67
2021/05/07 01:51:06;;;;;;;0.60;0.60;;;;;;;6.56;96.69;95912.66;5034382;28;20584;-67
2021/05/07 01:53:32;;;;;;;0.60;0.60;;;;;;;6.58;97.77;95915.03;5033519;28;20257;-67
2021/05/07 01:55:57;;;;;;;0.70;0.70;;;;;;;6.53;97.66;95920.09;5016850;28;20635;-67
2021/05/07 01:58:22;;;;;;;0.70;0.70;;;;;;;6.42;99.15;95926.06;5034052;28;20190;-67
2021/05/07 02:00:48;;;;;;;0.60;0.60;;;;;;;6.45;100.00;95928.25;5033234;28;20230;-67
2021/05/07 02:03:14;;;;;;;0.93;0.70;;;;;;;6.28;100.00;95922.06;5034162;28;20269;-67
2021/05/07 02:05:39;;;;;;;0.83;0.83;;;;;;;6.10;100.00;95917.69;5033521;28;20554;-67
2021/05/07 02:08:06;;;;;;;0.70;0.70;;;;;;;6.12;100.00;95910.47;5033959;28;20210;-67
2021/05/07 02:10:33;;;;;;;0.97;0.90;;;;;;;6.16;100.00;95915.00;5033201;28;20183;-67
2021/05/07 02:13:02;;;;;;;0.80;0.80;;;;;;;6.17;100.00;95921.81;5033872;28;20267;-67
2021/05/07 02:15:28;;;;;;;0.73;0.73;;;;;;;6.07;100.00;95924.16;5033918;28;20187;-67
2021/05/07 02:17:54;;;;;;;0.80;0.80;;;;;;;6.07;100.00;95918.94;5033003;28;20627;-67
2021/05/07 02:20:23;;;;;;;0.93;0.93;;;;;;;6.03;100.00;95922.97;5033567;28;20198;-67
2021/05/07 02:22:49;;;;;;;0.73;0.73;;;;;;;6.14;100.00;95927.44;5032796;28;20832;-67
2021/05/07 02:25:17;;;;;;;0.80;0.80;;;;;;;6.19;100.00;95916.38;5028613;28;20186;-67
2021/05/07 02:27:42;;;;;;;0.80;0.80;;;;;;;6.26;100.00;95917.88;5031802;28;20190;-67
2021/05/07 02:30:12;;;;;;;0.60;0.60;;;;;;;6.34;100.00;95926.41;5033678;28;20189;-67
2021/05/07 02:32:37;;;;;;;0.97;0.97;;;;;;;6.31;100.00;95930.22;5015141;28;20720;-67
2021/05/07 02:35:06;;;;;;;1.00;0.90;;;;;;;6.39;100.00;95932.53;5033238;28;20191;-66
2021/05/07 02:37:32;;;;;;;0.53;0.53;;;;;;;6.38;100.00;95937.94;5032966;28;20584;-67
2021/05/07 02:39:57;;;;;;;0.70;0.70;;;;;;;6.25;100.00;95934.50;5032974;28;20193;-67
2021/05/07 02:42:23;;;;;;;0.70;0.70;;;;;;;6.35;100.00;95934.00;5033461;28;20711;-67
2021/05/07 02:44:48;;;;;;;0.93;0.70;;;;;;;6.28;100.00;95938.47;5032373;28;20183;-67
2021/05/07 02:47:14;;;;;;;0.63;0.63;;;;;;;6.38;100.00;95946.56;5025651;28;20675;-67
2021/05/07 02:49:39;;;;;;;0.70;0.70;;;;;;;6.30;100.00;95939.03;5032364;28;20639;-67
2021/05/07 02:52:05;;;;;;;0.97;0.80;;;;;;;6.36;100.00;95943.38;5032793;28;20205;-67
2021/05/07 02:54:31;;;;;;;0.80;0.80;;;;;;;6.28;100.00;95938.47;5032482;28;20189;-66
2021/05/07 02:56:57;;;;;;;0.70;0.70;;;;;;;6.29;100.00;95934.88;5032644;28;20219;-67
2021/05/07 02:59:23;;;;;;;0.67;0.67;;;;;;;6.15;100.00;95944.63;5015431;28;20182;-67
2021/05/07 03:01:50;;;;;;;0.70;0.70;;;;;;;6.20;100.00;95933.56;5011911;28;20196;-67
2021/05/07 03:04:15;;;;;;;0.70;0.70;;;;;;;6.12;100.00;95947.69;5013194;28;20198;-66
2021/05/07 03:06:41;;;;;;;2.07;0.80;;;;;;;6.15;100.00;95943.84;5012295;28;20609;-67
2021/05/07 03:09:06;;;;;;;0.73;0.73;;;;;;;6.08;100.00;95949.13;5012634;28;20245;-67
2021/05/07 03:11:33;;;;;;;0.80;0.80;;;;;;;6.19;100.00;95947.59;5011856;28;20195;-67
2021/05/07 03:13:58;;;;;;;1.13;0.80;;;;;;;6.16;100.00;95946.22;4995027;28;20179;-66
2021/05/07 03:16:23;;;;;;;0.60;0.60;;;;;;;6.18;100.00;95944.22;4994691;28;20199;-67
2021/05/07 03:18:49;;;;;;;1.83;0.90;;;;;;;6.18;100.00;95946.03;5011998;28;20188;-66
2021/05/07 03:21:15;;;;;;;0.90;0.90;;;;;;;6.19;100.00;95956.19;5012787;28;20670;-67
2021/05/07 03:23:40;;;;;;;0.80;0.80;;;;;;;6.23;100.00;95959.16;5011972;28;20187;-67
2021/05/07 03:26:06;;;;;;;1.20;0.90;;;;;;;6.10;100.00;95957.50;5013083;28;20218;-67
2021/05/07 03:28:31;;;;;;;0.87;0.87;;;;;;;6.16;100.00;95961.84;5012794;28;20667;-67
2021/05/07 03:30:56;;;;;;;0.90;0.90;;;;;;;6.09;100.00;95958.53;5012780;28;20325;-67
2021/05/07 03:33:22;;;;;;;0.90;0.90;;;;;;;6.12;100.00;95959.91;5011559;28;21051;-67
2021/05/07 03:35:47;;;;;;;1.00;1.00;;;;;;;6.18;100.00;95954.63;5011686;28;20194;-67
2021/05/07 03:38:13;;;;;;;0.90;0.90;;;;;;;6.09;100.00;95962.94;5012894;28;20187;-67
2021/05/07 03:40:38;;;;;;;1.10;1.10;;;;;;;5.98;100.00;95972.25;5011832;28;20195;-67
2021/05/07 03:43:04;;;;;;;1.00;1.00;;;;;;;5.90;100.00;95969.16;5012682;28;20605;-66
2021/05/07 03:45:29;;;;;;;1.30;1.20;;;;;;;5.95;100.00;95971.91;5012230;28;20179;-67
2021/05/07 03:47:55;;;;;;;1.13;1.10;;;;;;;5.99;100.00;95981.66;5011759;28;20196;-66
2021/05/07 03:50:21;;;;;;;1.33;1.33;;;;;;;5.93;100.00;95984.31;5012461;28;20191;-67
2021/05/07 03:52:46;;;;;;;1.40;1.30;;;;;;;5.79;100.00;95983.66;5011426;28;20199;-66
2021/05/07 03:55:13;;;;;;;1.40;1.30;;;;;;;5.82;100.00;95989.22;5012178;28;20651;-67
2021/05/07 03:57:39;;;;;;;1.40;1.40;;;;;;;5.79;100.00;95994.84;5010791;28;20558;-67
2021/05/07 04:00:06;;;;;;;1.27;1.27;;;;;;;5.67;100.00;95991.38;5017710;28;20277;-67
2021/05/07 04:02:32;;;;;;;1.40;1.40;;;;;;;5.71;100.00;96000.31;5031637;28;20183;-67
2021/05/07 04:04:57;;;;;;;1.30;1.30;;;;;;;5.78;100.00;96002.84;5031305;28;20549;-67
2021/05/07 04:07:24;;;;;;;1.70;1.60;;;;;;;5.61;100.00;96009.63;5031837;28;20206;-67
2021/05/07 04:09:58;;;;;;;1.50;1.40;;;;;;;5.60;100.00;96005.44;5030564;28;20635;-66
2021/05/07 04:13:31;;;;;;;1.80;1.70;;;;;;;5.50;100.00;96005.13;5031766;28;20174;-67
2021/05/07 04:15:11;;;;;;;1.30;1.30;;;;;;;5.42;100.00;96014.78;5031464;28;20196;-67
2021/05/07 04:17:37;;;;;;;1.70;1.70;;;;;;;5.48;100.00;96017.53;5030796;28;20565;-67
2021/05/07 04:20:03;;;;;;;1.93;1.83;;;;;;;5.29;100.00;96020.09;5032008;28;20183;-66
2021/05/07 04:22:29;;;;;;;1.90;1.80;;;;;;;5.35;100.00;96021.81;5013821;28;20199;-67
2021/05/07 04:24:54;;;;;;;1.87;1.80;;;;;;;5.24;100.00;96024.34;5030965;28;20257;-67
2021/05/07 04:27:19;;;;;;;2.10;2.00;;;;;;;5.24;100.00;96032.91;5031017;28;20202;-67
2021/05/07 04:29:45;;;;;;;3.93;2.13;;;;;;;5.33;100.00;96031.66;5030699;28;20586;-66
2021/05/07 04:32:10;;;;;;;1.80;1.80;;;;;;;5.28;100.00;96033.28;5031427;28;20240;-66
2021/05/07 04:34:36;;;;;;;1.90;1.80;;;;;;;5.36;100.00;96041.59;5030833;28;20187;-66
2021/05/07 04:37:01;;;;;;;1.80;1.80;;;;;;;5.38;100.00;96042.19;5031076;28;20202;-67
2021/05/07 04:39:26;;;;;;;1.80;1.80;;;;;;;5.38;100.00;96042.19;5031207;28;20230;-66
2021/05/07 04:41:52;;;;;;;1.73;1.63;;;;;;;5.34;100.00;96048.03;5030848;28;20232;-66
2021/05/07 04:44:18;;;;;;;1.50;1.50;;;;;;;5.26;100.00;96049.09;5030616;28;20187;-67
2021/05/07 04:46:43;;;;;;;1.57;1.57;;;;;;;5.26;100.00;96049.09;5030527;28;20217;-67
2021/05/07 04:49:09;;;;;;;1.70;1.60;;;;;;;5.26;100.00;96059.47;5031104;28;20182;-67
2021/05/07 04:51:34;;;;;;;1.50;1.50;;;;;;;5.40;100.00;96065.38;5013390;28;20170;-66
2021/05/07 04:54:01;;;;;;;1.70;1.70;;;;;;;5.37;100.00;96063.19;5030924;28;20194;-66
2021/05/07 04:56:26;;;;;;;1.80;1.70;;;;;;;5.25;100.00;96068.25;5031315;28;20179;-66
2021/05/07 04:58:52;;;;;;;1.57;1.47;;;;;;;5.20;100.00;96065.50;5030403;28;20190;-67
2021/05/07 05:01:18;;;;;;;1.90;1.80;;;;;;;5.27;100.00;96071.47;5030821;28;20238;-66
2021/05/07 05:03:43;;;;;;;1.80;1.70;;;;;;;5.21;100.00;96072.28;5030056;28;20206;-66
2021/05/07 05:06:08;;;;;;;1.40;1.40;;;;;;;5.18;100.00;96077.13;5031173;28;20191;-66
2021/05/07 05:08:34;;;;;;;1.60;1.60;;;;;;;5.24;100.00;96091.88;5013236;28;20198;-66
2021/05/07 05:11:00;;;;;;;2.20;2.00;;;;;;;5.26;100.00;96090.66;5030503;28;20538;-66
2021/05/07 05:13:27;;;;;;;1.93;1.90;;;;;;;5.21;100.00;96089.69;5031381;28;20194;-66
2021/05/07 05:15:53;;;;;;;1.77;1.77;;;;;;;5.19;100.00;96092.47;5030529;28;20190;-66
2021/05/07 05:18:29;;;;;;;2.07;1.97;;;;;;;5.20;100.00;96096.69;5031110;28;20221;-66
2021/05/07 05:20:56;;;;;;;1.83;1.83;;;;;;;5.28;100.00;96099.03;5016250;28;20183;-66
2021/05/07 05:23:23;;;;;;;1.90;1.80;;;;;;;5.23;100.00;96100.66;5017158;28;20204;-66
2021/05/07 05:25:48;;;;;;;1.97;1.97;;;;;;;5.21;100.00;96103.47;5033859;28;20555;-67
2021/05/07 05:28:14;;;;;;;1.60;1.60;;;;;;;5.23;100.00;96106.66;5034951;28;20225;-66
2021/05/07 05:30:40;;;;;;;1.93;1.93;;;;;;;5.35;100.00;96112.00;5033147;28;20195;-66
2021/05/07 05:33:06;;;;;;;3.23;2.03;;;;;;;5.74;100.00;96111.66;5033880;28;20571;-68
2021/05/07 05:35:31;;;;;;;2.20;2.00;;;;;;;5.90;100.00;96114.78;5034956;28;20543;-69
2021/05/07 05:37:56;;;;;;;2.00;2.00;;;;;;;5.72;100.00;96125.91;5033672;28;20171;-65
2021/05/07 05:40:22;;;;;;;2.20;2.10;;;;;;;5.63;100.00;96130.56;5034449;28;20682;-65
2021/05/07 05:42:47;;;;;;;2.00;1.90;;;;;;;5.51;100.00;96132.25;5033704;28;20197;-65
2021/05/07 05:45:14;;;;;;;2.00;1.90;;;;;;;5.36;100.00;96147.34;5034389;28;20527;-65
2021/05/07 05:47:39;;;;;;;2.10;2.00;;;;;;;5.44;100.00;96136.69;5033915;28;20202;-65
2021/05/07 05:50:05;;;;;;;2.10;2.00;;;;;;;5.30;100.00;96140.38;5033859;28;20187;-65
2021/05/07 05:52:31;;;;;;;2.17;2.07;;;;;;;5.17;100.00;96145.66;5033983;28;20233;-64
2021/05/07 05:54:56;;;;;;;2.47;2.27;;;;;;;5.05;100.00;96150.72;5033166;28;20262;-64
2021/05/07 05:57:21;;;;;;;2.57;2.37;;;;;;;5.02;100.00;96149.31;5034167;28;20187;-65
2021/05/07 05:59:50;;;;;;;2.27;2.13;;;;;;;5.02;100.00;96151.13;5033067;28;20219;-66
2021/05/07 06:02:19;;;;;;;2.33;2.23;;;;;;;5.17;100.00;96167.25;5033957;28;20183;-65
2021/05/07 06:04:45;;;;;;;3.83;2.70;;;;;;;5.28;100.00;96166.59;5015651;28;20203;-66
2021/05/07 06:07:10;;;;;;;3.27;2.97;;;;;;;5.26;100.00;96171.19;5033732;28;20300;-66
2021/05/07 06:09:36;;;;;;;3.00;2.80;;;;;;;5.22;100.00;96162.22;5033809;28;20189;-66
2021/05/07 06:12:06;;;;;;;3.53;2.83;;;;;;;5.31;100.00;96170.56;5033171;28;20200;-65
2021/05/07 06:14:33;;;;;;;2.70;2.50;;;;;;;5.43;100.00;96182.69;5033757;28;20265;-65
2021/05/07 06:16:58;;;;;;;3.00;2.70;;;;;;;5.50;100.00;96177.44;5032888;28;20782;-64
2021/05/07 06:19:23;;;;;;;3.00;2.80;;;;;;;5.54;100.00;96177.81;5032633;28;20183;-64
2021/05/07 06:21:49;;;;;;;2.60;2.40;;;;;;;5.68;100.00;96185.34;5033624;28;20186;-64
2021/05/07 06:24:14;;;;;;;3.40;2.43;;;;;;;5.80;100.00;96185.44;5033293;28;20538;-64
2021/05/07 06:26:40;;;;;;;3.47;3.10;;;;;;;5.71;100.00;96182.31;5015573;28;20183;-65
2021/05/07 06:29:05;;;;;;;2.80;2.50;;;;;;;5.81;100.00;96184.44;5033307;28;20272;-64
2021/05/07 06:31:31;;;;;;;2.90;2.70;;;;;;;5.76;100.00;96176.47;5032913;28;20221;-64
2021/05/07 06:33:57;;;;;;;3.13;2.80;;;;;;;5.73;100.00;96180.31;5024175;28;20225;-65
2021/05/07 06:36:22;;;;;;;3.33;3.03;;;;;;;5.77;100.00;96181.47;5033811;28;20572;-65
2021/05/07 06:38:47;;;;;;;3.20;2.77;;;;;;;5.75;100.00;96187.88;5015463;28;20225;-64
2021/05/07 06:41:13;;;;;;;3.13;2.67;;;;;;;5.87;100.00;96199.22;5033471;28;20190;-64
2021/05/07 06:43:39;;;;;;;2.47;2.27;;;;;;;5.94;100.00;96207.78;5033654;28;20187;-64
2021/05/07 06:46:04;;;;;;;3.10;2.80;;;;;;;6.12;100.00;96204.44;5031661;28;20237;-65
2021/05/07 06:48:30;;;;;;;2.83;2.63;;;;;;;6.15;100.00;96210.00;5033169;28;20203;-64
2021/05/07 06:50:55;;;;;;;2.87;2.67;;;;;;;6.20;100.00;96215.38;5032694;28;20190;-65
2021/05/07 06:53:22;;;;;;;3.00;2.60;;;;;;;6.15;100.00;96212.59;5033237;28;20213;-65
2021/05/07 06:55:47;;;;;;;2.93;2.70;;;;;;;6.19;100.00;96220.78;5013334;28;20541;-65
2021/05/07 06:58:13;;;;;;;3.00;2.80;;;;;;;6.28;100.00;96226.53;5033717;28;20190;-65
2021/05/07 07:00:38;;;;;;;3.33;3.00;;;;;;;6.36;100.00;96226.25;5014855;28;20218;-65
2021/05/07 07:03:04;;;;;;;4.57;3.00;;;;;;;6.29;100.00;96223.72;5032111;28;20179;-65
2021/05/07 07:05:29;;;;;;;3.90;3.00;;;;;;;6.09;100.00;96229.06;5014059;28;20182;-66
2021/05/07 07:07:55;;;;;;;3.23;2.93;;;;;;;5.98;100.00;96226.34;5014818;28;20229;-64
2021/05/07 07:10:21;;;;;;;3.50;3.20;;;;;;;6.04;100.00;96228.09;5033273;28;20265;-65
2021/05/07 07:12:47;;;;;;;3.20;2.90;;;;;;;6.09;100.00;96229.06;5016319;28;20305;-66
2021/05/07 07:15:13;;;;;;;3.77;3.47;;;;;;;6.16;100.00;96244.63;5033178;28;20294;-66
2021/05/07 07:17:39;;;;;;;3.97;3.57;;;;;;;6.20;100.00;96240.59;5032878;28;20193;-65
2021/05/07 07:20:05;;;;;;;5.53;3.50;;;;;;;6.13;100.00;96245.06;5032218;28;20208;-65
2021/05/07 07:22:30;;;;;;;3.60;3.30;;;;;;;6.07;100.00;96262.31;5032607;28;20198;-64
2021/05/07 07:24:56;;;;;;;4.23;3.77;;;;;;;5.85;100.00;96256.59;5030676;28;20179;-64
2021/05/07 07:27:21;;;;;;;4.27;3.87;;;;;;;5.90;100.00;96265.63;5032113;28;20290;-64
2021/05/07 07:29:47;;;;;;;4.27;3.87;;;;;;;5.86;100.00;96263.41;5032010;28;20183;-65
2021/05/07 07:32:12;;;;;;;3.60;3.30;;;;;;;5.79;100.00;96270.47;5032435;28;20201;-65
2021/05/07 07:34:38;;;;;;;4.33;3.67;;;;;;;5.53;100.00;96273.19;5031593;28;20187;-65
2021/05/07 07:37:04;;;;;;;4.40;4.00;;;;;;;5.58;100.00;96264.75;5031563;28;20244;-65
2021/05/07 07:39:29;;;;;;;4.63;3.80;;;;;;;5.61;100.00;96277.34;5030931;28;20647;-66
2021/05/07 07:41:54;;;;;;;4.40;4.00;;;;;;;5.62;100.00;96277.16;5031909;28;20186;-66
2021/05/07 07:44:20;;;;;;;5.83;4.43;;;;;;;5.74;100.00;96282.50;5031339;28;20655;-66
2021/05/07 07:46:46;;;;;;;4.33;3.93;;;;;;;5.62;100.00;96284.94;5031501;28;20175;-66
2021/05/07 07:49:11;;;;;;;6.90;4.80;;;;;;;5.66;99.99;96288.72;5013937;28;20636;-66
2021/05/07 07:51:38;;;;;;;7.83;4.70;;;;;;;5.65;100.00;96289.72;5032383;28;20190;-66
2021/05/07 07:54:04;;;;;;;7.50;4.93;;;;;;;5.64;98.70;96287.31;5031291;28;20185;-66
2021/05/07 07:56:30;;;;;;;5.43;4.10;;;;;;;5.70;99.45;96287.28;5023178;28;20274;-66
2021/05/07 07:58:55;;;;;;;7.73;4.93;;;;;;;5.99;97.99;96298.97;5020600;28;20201;-66
2021/05/07 08:01:21;;;;;;;7.13;4.10;;;;;;;6.22;96.71;96307.03;5027560;28;20690;-66
2021/05/07 08:03:47;;;;;;;6.47;3.70;;;;;;;6.40;97.71;96314.13;5030910;28;20678;-66
2021/05/07 08:06:12;;;;;;;4.00;3.60;;;;;;;6.56;94.83;96315.38;5031894;28;20183;-66
2021/05/07 08:08:38;;;;;;;3.83;3.43;;;;;;;6.84;92.67;96309.75;5031670;28;20202;-65
2021/05/07 08:11:03;;;;;;;5.47;3.80;;;;;;;6.83;91.28;96319.38;5030946;28;20197;-65
2021/05/07 08:13:30;;;;;;;4.13;3.53;;;;;;;6.85;91.63;96311.34;5031683;28;20178;-65
2021/05/07 08:15:55;;;;;;;4.10;3.60;;;;;;;7.14;91.10;96320.25;5030068;28;20182;-65
2021/05/07 08:18:21;;;;;;;3.83;3.53;;;;;;;7.29;91.23;96339.78;5031676;28;20181;-65
2021/05/07 08:20:46;;;;;;;3.67;3.37;;;;;;;7.36;88.46;96339.69;5031239;28;20547;-64
2021/05/07 08:23:12;;;;;;;4.40;3.20;;;;;;;7.54;89.94;96339.69;5030557;28;20336;-66
2021/05/07 08:25:37;;;;;;;5.20;3.37;;;;;;;7.89;88.16;96343.28;5031194;28;20645;-66
2021/05/07 08:28:02;;;;;;;3.20;2.80;;;;;;;7.96;83.36;96342.41;5030325;28;20206;-66
2021/05/07 08:30:28;;;;;;;3.50;3.20;;;;;;;7.78;79.89;96351.84;5031125;28;20651;-67
2021/05/07 08:32:53;;;;;;;3.60;3.30;;;;;;;7.55;78.75;96354.31;5030990;28;20546;-66
2021/05/07 08:35:19;;;;;;;4.03;3.57;;;;;;;7.82;83.31;96354.78;5030817;28;20635;-67
2021/05/07 08:37:44;;;;;;;3.67;3.30;;;;;;;8.21;79.51;96364.72;5012183;28;20204;-64
2021/05/07 08:40:15;;;;;;;3.40;3.10;;;;;;;8.49;77.81;96368.59;5013544;28;20631;-65
2021/05/07 08:42:41;;;;;;;3.50;3.03;;;;;;;8.44;77.84;96364.03;5031077;28;20186;-65
2021/05/07 08:45:09;;;;;;;5.07;2.93;;;;;;;8.50;79.81;96372.81;5030910;28;20197;-66
2021/05/07 08:47:34;;;;;;;3.23;2.93;;;;;;;8.85;77.98;96376.28;5031154;28;20194;-66
2021/05/07 08:50:01;;;;;;;4.30;3.00;;;;;;;9.04;76.91;96379.59;5030694;28;20198;-66
2021/05/07 08:52:27;;;;;;;3.47;3.17;;;;;;;8.99;75.93;96379.47;5031114;28;20573;-67
2021/05/07 08:54:53;;;;;;;3.07;2.80;;;;;;;9.23;76.35;96382.91;5029801;28;20190;-67
2021/05/07 08:57:18;;;;;;;4.27;3.00;;;;;;;9.28;75.19;96389.03;5031251;28;20186;-67
2021/05/07 08:59:44;;;;;;;3.43;2.57;;;;;;;9.05;73.04;96386.41;5029869;28;20222;-66
2021/05/07 09:02:09;;;;;;;2.50;2.30;;;;;;;8.31;73.19;96398.16;5031175;28;20190;-67
2021/05/07 09:04:35;;;;;;;2.63;2.43;;;;;;;8.32;72.75;96394.53;5030856;28;20557;-68
2021/05/07 09:07:11;;;;;;;3.30;2.47;;;;;;;8.33;73.31;96403.97;5030038;28;20775;-66
2021/05/07 09:09:48;;;;;;;2.50;2.30;;;;;;;8.36;73.56;96400.91;5031359;28;20178;-66
2021/05/07 09:12:41;;;;;;;2.73;2.20;;;;;;;8.31;68.48;96403.38;5025170;28;20220;-67
2021/05/07 09:15:12;;;;;;;2.40;2.20;;;;;;;8.68;70.22;96412.72;5026099;28;20177;-66
2021/05/07 09:17:39;;;;;;;2.27;2.07;;;;;;;9.03;67.14;96420.59;5031042;28;20411;-67
2021/05/07 09:20:08;;;;;;;2.50;2.30;;;;;;;9.30;64.78;96420.19;5030196;28;20187;-66
2021/05/07 09:22:33;;;;;;;2.53;2.00;;;;;;;9.58;64.34;96428.16;5030977;28;20195;-67
2021/05/07 09:25:18;;;;;;;3.87;2.10;;;;;;;9.24;64.22;96431.56;5030234;28;20732;-66
2021/05/07 09:27:44;;;;;;;2.47;2.03;;;;;;;8.73;63.17;96432.94;5030558;28;20727;-64
2021/05/07 09:30:28;;;;;;;3.33;2.43;;;;;;;8.67;64.16;96437.25;5031116;28;20183;-66
2021/05/07 09:32:54;;;;;;;2.20;1.97;;;;;;;8.47;64.05;96430.72;5015800;28;20191;-66
2021/05/07 09:35:24;;;;;;;2.27;2.07;;;;;;;8.60;63.75;96443.56;5018803;28;20191;-66
2021/05/07 09:37:55;;;;;;;2.47;2.27;;;;;;;8.79;63.03;96439.91;5029627;28;20187;-67
2021/05/07 09:40:20;;;;;;;2.70;2.20;;;;;;;9.10;62.66;96463.13;5030825;28;20186;-66
2021/05/07 09:42:48;;;;;;;4.03;2.50;;;;;;;8.86;60.19;96450.25;5012441;28;20179;-66
2021/05/07 09:45:19;;;;;;;2.30;2.10;;;;;;;9.27;60.10;96460.66;5031034;28;20183;-66
2021/05/07 09:47:47;;;;;;;2.10;1.77;;;;;;;9.43;59.32;96459.19;5012330;28;20276;-65
2021/05/07 09:50:13;;;;;;;3.30;2.33;;;;;;;9.55;59.45;96460.78;5030894;28;20195;-66
2021/05/07 09:52:38;;;;;;;12.87;2.63;;;;;;;10.20;60.31;96454.56;5030664;28;20198;-66
2021/05/07 09:55:04;;;;;;;2.33;2.13;;;;;;;10.47;56.43;96467.97;5029850;28;20647;-66
2021/05/07 09:57:31;;;;;;;2.67;2.47;;;;;;;10.31;55.41;96457.16;5030846;28;20191;-66
2021/05/07 09:59:59;;;;;;;1.80;1.70;;;;;;;10.06;51.64;96463.69;5029274;28;20538;-66
2021/05/07 10:02:25;;;;;;;2.00;1.90;;;;;;;9.94;51.56;96458.47;5023669;28;20191;-67
2021/05/07 10:04:50;;;;;;;2.07;1.90;;;;;;;9.92;53.33;96468.38;5029782;28;20228;-64
2021/05/07 10:07:15;;;;;;;2.43;2.13;;;;;;;10.12;53.42;96475.88;5028097;28;20203;-65
2021/05/07 10:09:41;;;;;;;2.30;2.10;;;;;;;9.89;49.49;96467.03;5033814;28;20541;-65
2021/05/07 10:12:09;;;;;;;1.80;1.70;;;;;;;9.77;48.67;96471.47;5033924;28;20190;-65
2021/05/07 10:14:47;;;;;;;2.33;2.13;;;;;;;9.92;48.71;96489.31;5033295;28;20631;-65
2021/05/07 10:17:13;;;;;;;2.00;1.90;;;;;;;9.99;47.35;96482.16;5020655;28;20198;-65
2021/05/07 10:19:43;;;;;;;6.00;1.73;;;;;;;10.32;50.47;96484.16;5033562;28;20201;-67
2021/05/07 10:22:10;;;;;;;2.20;2.10;;;;;;;10.37;48.41;96481.63;5016782;28;20273;-65
2021/05/07 10:24:37;;;;;;;2.33;2.13;;;;;;;10.61;49.38;96490.22;5031560;28;20642;-66
2021/05/07 10:27:20;;;;;;;1.83;1.73;;;;;;;10.88;48.49;96496.50;5014688;28;20213;-65
2021/05/07 10:29:56;;;;;;;2.10;1.90;;;;;;;11.19;48.69;96505.69;5032677;28;20174;-65
2021/05/07 10:32:33;;;;;;;2.27;2.03;;;;;;;11.07;47.11;96505.75;5033692;28;20178;-66
2021/05/07 10:34:59;;;;;;;2.13;1.80;;;;;;;11.17;47.44;96518.25;5032701;28;20546;-66
2021/05/07 10:37:36;;;;;;;3.23;1.80;;;;;;;11.14;46.20;96510.88;5032990;28;20187;-66
2021/05/07 10:40:02;;;;;;;2.70;1.90;;;;;;;11.23;46.09;96515.47;5032841;28;20171;-65
2021/05/07 10:42:27;;;;;;;1.90;1.80;;;;;;;11.42;45.32;96523.94;5015030;28;20194;-66
2021/05/07 10:44:53;;;;;;;2.03;1.83;;;;;;;11.39;45.86;96520.97;5032008;28;20182;-65
2021/05/07 10:47:18;;;;;;;2.20;2.00;;;;;;;11.42;44.65;96536.25;5033368;28;20234;-65
2021/05/07 10:49:45;;;;;;;1.80;1.70;;;;;;;11.64;44.96;96524.00;5033386;28;20193;-65
2021/05/07 10:52:12;;;;;;;2.10;1.90;;;;;;;11.55;43.74;96536.72;5033318;28;20178;-65
2021/05/07 10:54:39;;;;;;;2.93;2.00;;;;;;;11.17;43.45;96544.47;5032453;28;20178;-65
2021/05/07 10:57:25;;;;;;;2.47;2.27;;;;;;;10.81;44.13;96537.81;5027214;28;20763;-64
2021/05/07 10:59:55;;;;;;;1.97;1.67;;;;;;;11.11;44.86;96538.34;5029157;28;20222;-64
2021/05/07 11:02:21;;;;;;;1.80;1.70;;;;;;;11.53;45.87;96551.94;5032203;28;20195;-67
2021/05/07 11:04:48;;;;;;;2.17;1.70;;;;;;;11.45;42.71;96544.44;4994312;28;20185;-67
2021/05/07 11:07:25;;;;;;;1.93;1.77;;;;;;;11.59;42.64;96556.19;5033116;28;20203;-67
2021/05/07 11:10:05;;;;;;;2.43;1.50;;;;;;;11.62;44.43;96563.63;5032748;28;20237;-68
2021/05/07 11:12:30;;;;;;;1.60;1.50;;;;;;;11.30;43.19;96559.13;5033419;28;20183;-68
2021/05/07 11:14:55;;;;;;;2.07;1.87;;;;;;;11.04;43.76;96563.91;5032374;28;20199;-67
2021/05/07 11:17:22;;;;;;;2.60;1.80;;;;;;;10.94;44.02;96558.47;5032746;28;20214;-67
2021/05/07 11:19:47;;;;;;;1.80;1.70;;;;;;;10.71;44.55;96569.03;5032467;28;20278;-67
2021/05/07 11:22:13;;;;;;;1.90;1.80;;;;;;;10.64;45.15;96584.13;5032875;28;20265;-67
2021/05/07 11:24:40;;;;;;;2.03;1.80;;;;;;;10.61;45.13;96592.44;5031929;28;20655;-67
2021/05/07 11:27:24;;;;;;;2.10;1.90;;;;;;;10.46;45.38;96579.03;5013789;28;20234;-68
2021/05/07 11:29:50;;;;;;;2.87;2.10;;;;;;;10.31;46.02;96593.38;5031319;28;20182;-63
2021/05/07 11:32:21;;;;;;;2.20;2.00;;;;;;;10.28;46.03;96590.44;5032842;28;20218;-63
2021/05/07 11:35:12;;;;;;;1.83;1.70;;;;;;;10.74;46.94;96581.69;5031764;28;20197;-61